Weather at Berlin Brandenburg Airport

Public forecast

Using degrees Celsius for public forecast. Weather courtesy of forecast.io.

Closest aviation weather report (METAR) to Berlin Brandenburg Airport

Closest report is Berlin-Schönefeld Airport, 2.0 nm (3.7 km) NNE. Retrieved UTC (0 seconds ago):

Aviation forecast (TAF) for Berlin Brandenburg Airport

Retrieved 2020-12-01 00:27 UTC (1 hour ago):

TAF TAF EDDB 302300Z 0100/0124 17007KT 9999 BKN030 BECMG 0101/0105 BKN012 TEMPO 0102/0105 4000 -SN BKN008 TEMPO 0105/0108 4000 -RASN BKN005 BECMG 0106/0108 11006KT TEMPO 0108/0111 4000 -DZRA BKN008 BECMG 0111/0115 BKN015